sensor_id;sensor_type;location;lat;lon;timestamp;pressure;altitude;pressure_sealevel;temperature;humidity
1480;BME280;732;51.698;4.886;2022-11-06T00:00:45;101524.78;;;11.07;100.00
1480;BME280;732;51.698;4.886;2022-11-06T00:03:13;101577.00;;;11.35;100.00
1480;BME280;732;51.698;4.886;2022-11-06T00:05:42;101558.72;;;11.37;100.00
1480;BME280;732;51.698;4.886;2022-11-06T00:08:32;101465.31;;;10.69;100.00
1480;BME280;732;51.698;4.886;2022-11-06T00:11:08;101554.97;;;11.27;100.00
1480;BME280;732;51.698;4.886;2022-11-06T00:13:37;101546.66;;;11.42;100.00
1480;BME280;732;51.698;4.886;2022-11-06T00:16:09;101406.66;;;10.58;100.00
1480;BME280;732;51.698;4.886;2022-11-06T00:18:38;101544.91;;;11.42;100.00
1480;BME280;732;51.698;4.886;2022-11-06T00:21:08;101539.09;;;11.54;100.00
1480;BME280;732;51.698;4.886;2022-11-06T00:23:39;101510.06;;;11.43;100.00
1480;BME280;732;51.698;4.886;2022-11-06T00:26:12;101497.78;;;11.42;100.00
1480;BME280;732;51.698;4.886;2022-11-06T00:28:41;101457.59;;;11.39;100.00
1480;BME280;732;51.698;4.886;2022-11-06T00:31:12;101508.28;;;11.77;100.00
1480;BME280;732;51.698;4.886;2022-11-06T00:33:42;101476.72;;;11.71;100.00
1480;BME280;732;51.698;4.886;2022-11-06T00:36:18;101475.56;;;11.61;100.00
1480;BME280;732;51.698;4.886;2022-11-06T00:38:50;101527.00;;;11.93;100.00
1480;BME280;732;51.698;4.886;2022-11-06T00:41:20;101473.13;;;11.66;100.00
1480;BME280;732;51.698;4.886;2022-11-06T00:43:50;101489.06;;;11.76;100.00
1480;BME280;732;51.698;4.886;2022-11-06T00:46:19;101512.19;;;11.94;100.00
1480;BME280;732;51.698;4.886;2022-11-06T00:48:48;101488.63;;;11.94;100.00
1480;BME280;732;51.698;4.886;2022-11-06T00:51:20;101441.41;;;11.55;100.00
1480;BME280;732;51.698;4.886;2022-11-06T00:53:55;101504.22;;;11.89;100.00
1480;BME280;732;51.698;4.886;2022-11-06T00:56:24;101440.63;;;11.59;100.00
1480;BME280;732;51.698;4.886;2022-11-06T00:58:54;101512.06;;;11.89;100.00
1480;BME280;732;51.698;4.886;2022-11-06T01:01:25;101470.63;;;11.70;100.00
1480;BME280;732;51.698;4.886;2022-11-06T01:03:55;101434.13;;;11.78;100.00
1480;BME280;732;51.698;4.886;2022-11-06T01:06:27;101477.19;;;11.90;100.00
1480;BME280;732;51.698;4.886;2022-11-06T01:08:58;101491.59;;;12.09;100.00
1480;BME280;732;51.698;4.886;2022-11-06T01:11:29;101479.06;;;11.96;100.00
1480;BME280;732;51.698;4.886;2022-11-06T01:14:19;101297.53;;;10.84;100.00
1480;BME280;732;51.698;4.886;2022-11-06T01:16:48;101509.44;;;11.89;100.00
1480;BME280;732;51.698;4.886;2022-11-06T01:19:18;101471.31;;;11.65;100.00
1480;BME280;732;51.698;4.886;2022-11-06T01:21:50;101472.34;;;11.70;100.00
1480;BME280;732;51.698;4.886;2022-11-06T01:24:23;101509.41;;;11.88;100.00
1480;BME280;732;51.698;4.886;2022-11-06T01:26:52;101382.09;;;11.20;100.00
1480;BME280;732;51.698;4.886;2022-11-06T01:29:41;101499.28;;;12.03;100.00
1480;BME280;732;51.698;4.886;2022-11-06T01:32:09;101452.56;;;11.82;100.00
1480;BME280;732;51.698;4.886;2022-11-06T01:34:38;101435.72;;;11.71;100.00
1480;BME280;732;51.698;4.886;2022-11-06T01:37:06;101495.69;;;11.98;100.00
1480;BME280;732;51.698;4.886;2022-11-06T01:39:42;101481.84;;;12.03;100.00
1480;BME280;732;51.698;4.886;2022-11-06T01:42:12;101447.41;;;11.85;100.00
1480;BME280;732;51.698;4.886;2022-11-06T01:45:22;101497.78;;;12.14;100.00
1480;BME280;732;51.698;4.886;2022-11-06T01:47:52;101458.44;;;12.11;100.00
1480;BME280;732;51.698;4.886;2022-11-06T01:50:20;101496.19;;;12.19;100.00
1480;BME280;732;51.698;4.886;2022-11-06T01:52:50;101485.06;;;12.30;100.00
1480;BME280;732;51.698;4.886;2022-11-06T01:55:24;101499.75;;;12.22;100.00
1480;BME280;732;51.698;4.886;2022-11-06T01:57:54;101456.09;;;11.84;100.00
1480;BME280;732;51.698;4.886;2022-11-06T02:00:23;101429.09;;;11.87;100.00
1480;BME280;732;51.698;4.886;2022-11-06T02:02:52;101482.94;;;12.13;100.00
1480;BME280;732;51.698;4.886;2022-11-06T02:05:21;101469.00;;;12.15;100.00
1480;BME280;732;51.698;4.886;2022-11-06T02:07:51;101391.50;;;11.83;100.00
1480;BME280;732;51.698;4.886;2022-11-06T02:10:22;101413.56;;;11.94;100.00
1480;BME280;732;51.698;4.886;2022-11-06T02:13:02;101435.81;;;12.14;100.00
1480;BME280;732;51.698;4.886;2022-11-06T02:15:42;101404.91;;;11.98;100.00
1480;BME280;732;51.698;4.886;2022-11-06T02:18:26;101409.97;;;11.91;100.00
1480;BME280;732;51.698;4.886;2022-11-06T02:21:47;101448.84;;;12.11;100.00
1480;BME280;732;51.698;4.886;2022-11-06T02:25:01;101462.97;;;12.18;100.00
1480;BME280;732;51.698;4.886;2022-11-06T02:27:35;101455.41;;;12.31;100.00
1480;BME280;732;51.698;4.886;2022-11-06T02:30:06;101450.78;;;12.20;100.00
1480;BME280;732;51.698;4.886;2022-11-06T02:32:39;101430.72;;;12.22;100.00
1480;BME280;732;51.698;4.886;2022-11-06T02:35:19;101449.34;;;12.34;100.00
1480;BME280;732;51.698;4.886;2022-11-06T02:37:53;101451.88;;;12.31;100.00
1480;BME280;732;51.698;4.886;2022-11-06T02:40:28;101380.09;;;11.81;100.00
1480;BME280;732;51.698;4.886;2022-11-06T02:43:04;101391.84;;;12.00;100.00
1480;BME280;732;51.698;4.886;2022-11-06T02:45:43;101376.28;;;11.69;100.00
1480;BME280;732;51.698;4.886;2022-11-06T02:48:16;101386.09;;;11.77;100.00
1480;BME280;732;51.698;4.886;2022-11-06T02:50:49;101242.63;;;11.21;100.00
1480;BME280;732;51.698;4.886;2022-11-06T02:53:23;101243.50;;;11.21;100.00
1480;BME280;732;51.698;4.886;2022-11-06T02:55:55;101326.72;;;11.76;100.00
1480;BME280;732;51.698;4.886;2022-11-06T02:58:31;101441.56;;;12.38;100.00
1480;BME280;732;51.698;4.886;2022-11-06T03:01:10;101341.19;;;11.99;100.00
1480;BME280;732;51.698;4.886;2022-11-06T03:03:44;101427.84;;;12.52;100.00
1480;BME280;732;51.698;4.886;2022-11-06T03:06:19;101444.19;;;12.40;100.00
1480;BME280;732;51.698;4.886;2022-11-06T03:08:54;101427.53;;;12.36;100.00
1480;BME280;732;51.698;4.886;2022-11-06T03:11:24;101367.63;;;12.11;100.00
1480;BME280;732;51.698;4.886;2022-11-06T03:14:02;101374.97;;;12.30;100.00
1480;BME280;732;51.698;4.886;2022-11-06T03:16:44;101376.00;;;12.37;100.00
1480;BME280;732;51.698;4.886;2022-11-06T03:19:23;101316.69;;;11.97;100.00
1480;BME280;732;51.698;4.886;2022-11-06T03:21:59;101367.03;;;12.26;100.00
1480;BME280;732;51.698;4.886;2022-11-06T03:24:33;101397.75;;;12.33;100.00
1480;BME280;732;51.698;4.886;2022-11-06T03:27:11;101338.13;;;12.23;100.00
1480;BME280;732;51.698;4.886;2022-11-06T03:29:46;101364.66;;;12.38;100.00
1480;BME280;732;51.698;4.886;2022-11-06T03:32:22;101378.72;;;12.41;100.00
1480;BME280;732;51.698;4.886;2022-11-06T03:34:58;101408.81;;;12.62;100.00
1480;BME280;732;51.698;4.886;2022-11-06T03:37:32;101412.34;;;12.64;100.00
1480;BME280;732;51.698;4.886;2022-11-06T03:40:06;101329.13;;;12.07;100.00
1480;BME280;732;51.698;4.886;2022-11-06T03:42:38;101396.16;;;12.39;100.00
1480;BME280;732;51.698;4.886;2022-11-06T03:45:13;101358.00;;;12.12;100.00
1480;BME280;732;51.698;4.886;2022-11-06T03:47:46;101405.88;;;12.45;100.00
1480;BME280;732;51.698;4.886;2022-11-06T03:50:20;101183.91;;;11.50;100.00
1480;BME280;732;51.698;4.886;2022-11-06T03:52:54;101172.66;;;11.55;100.00
1480;BME280;732;51.698;4.886;2022-11-06T03:55:29;101374.91;;;12.72;100.00
1480;BME280;732;51.698;4.886;2022-11-06T03:58:05;101322.66;;;12.35;100.00
1480;BME280;732;51.698;4.886;2022-11-06T04:00:39;101370.56;;;12.74;100.00
1480;BME280;732;51.698;4.886;2022-11-06T04:03:19;101300.84;;;12.36;100.00
1480;BME280;732;51.698;4.886;2022-11-06T04:05:55;101342.50;;;12.69;100.00
1480;BME280;732;51.698;4.886;2022-11-06T04:08:26;101301.53;;;12.26;100.00
1480;BME280;732;51.698;4.886;2022-11-06T04:11:17;101362.69;;;12.73;100.00
1480;BME280;732;51.698;4.886;2022-11-06T04:14:06;101366.25;;;12.76;100.00
1480;BME280;732;51.698;4.886;2022-11-06T04:16:42;101369.88;;;12.84;100.00
1480;BME280;732;51.698;4.886;2022-11-06T04:19:14;101336.56;;;12.79;100.00
1480;BME280;732;51.698;4.886;2022-11-06T04:22:00;101357.88;;;12.98;100.00
1480;BME280;732;51.698;4.886;2022-11-06T04:24:45;101347.91;;;12.78;100.00
1480;BME280;732;51.698;4.886;2022-11-06T04:27:47;101304.69;;;12.55;100.00
1480;BME280;732;51.698;4.886;2022-11-06T04:30:19;101348.13;;;12.90;100.00
1480;BME280;732;51.698;4.886;2022-11-06T04:33:06;101320.88;;;12.82;100.00
1480;BME280;732;51.698;4.886;2022-11-06T04:35:52;101335.69;;;12.78;100.00
1480;BME280;732;51.698;4.886;2022-11-06T04:38:32;101289.25;;;12.73;100.00
1480;BME280;732;51.698;4.886;2022-11-06T04:41:12;101302.19;;;12.62;100.00
1480;BME280;732;51.698;4.886;2022-11-06T04:43:48;101260.16;;;12.58;100.00
1480;BME280;732;51.698;4.886;2022-11-06T04:46:23;101322.81;;;12.92;100.00
1480;BME280;732;51.698;4.886;2022-11-06T04:48:55;101274.44;;;12.76;100.00
1480;BME280;732;51.698;4.886;2022-11-06T04:51:31;101314.03;;;12.90;100.00
1480;BME280;732;51.698;4.886;2022-11-06T04:54:01;101295.44;;;12.78;100.00
1480;BME280;732;51.698;4.886;2022-11-06T04:56:31;101275.09;;;12.63;100.00
1480;BME280;732;51.698;4.886;2022-11-06T04:59:03;101247.97;;;12.61;100.00
1480;BME280;732;51.698;4.886;2022-11-06T05:01:32;101259.25;;;12.57;100.00
1480;BME280;732;51.698;4.886;2022-11-06T05:04:02;101277.63;;;12.57;100.00
1480;BME280;732;51.698;4.886;2022-11-06T05:06:30;101262.34;;;12.33;100.00
1480;BME280;732;51.698;4.886;2022-11-06T05:08:59;101266.66;;;12.28;100.00
1480;BME280;732;51.698;4.886;2022-11-06T05:11:27;101303.78;;;12.53;100.00
1480;BME280;732;51.698;4.886;2022-11-06T05:13:58;101304.72;;;12.58;100.00
1480;BME280;732;51.698;4.886;2022-11-06T05:16:26;101303.06;;;12.63;100.00
1480;BME280;732;51.698;4.886;2022-11-06T05:18:54;101268.63;;;12.41;100.00
1480;BME280;732;51.698;4.886;2022-11-06T05:21:24;101279.94;;;12.39;100.00
1480;BME280;732;51.698;4.886;2022-11-06T05:24:10;101238.63;;;12.26;100.00
1480;BME280;732;51.698;4.886;2022-11-06T05:26:38;101304.84;;;12.65;100.00
1480;BME280;732;51.698;4.886;2022-11-06T05:29:07;101243.09;;;12.31;100.00
1480;BME280;732;51.698;4.886;2022-11-06T05:31:35;101290.94;;;12.68;100.00
1480;BME280;732;51.698;4.886;2022-11-06T05:34:04;101291.56;;;12.55;100.00
1480;BME280;732;51.698;4.886;2022-11-06T05:36:35;101220.88;;;12.10;100.00
1480;BME280;732;51.698;4.886;2022-11-06T05:39:04;101251.81;;;12.30;100.00
1480;BME280;732;51.698;4.886;2022-11-06T05:41:32;101296.81;;;12.55;100.00
1480;BME280;732;51.698;4.886;2022-11-06T05:44:00;101284.69;;;12.63;100.00
1480;BME280;732;51.698;4.886;2022-11-06T05:46:29;101285.44;;;12.54;100.00
1480;BME280;732;51.698;4.886;2022-11-06T05:49:16;101250.41;;;12.49;100.00
1480;BME280;732;51.698;4.886;2022-11-06T05:51:46;101277.63;;;12.59;100.00
1480;BME280;732;51.698;4.886;2022-11-06T05:54:14;101227.50;;;12.39;100.00
1480;BME280;732;51.698;4.886;2022-11-06T05:56:43;101156.88;;;11.96;100.00
1480;BME280;732;51.698;4.886;2022-11-06T05:59:11;101265.94;;;12.38;100.00
1480;BME280;732;51.698;4.886;2022-11-06T06:01:39;101214.81;;;12.12;100.00
1480;BME280;732;51.698;4.886;2022-11-06T06:04:08;101270.53;;;12.52;100.00
1480;BME280;732;51.698;4.886;2022-11-06T06:06:37;101266.41;;;12.64;100.00
1480;BME280;732;51.698;4.886;2022-11-06T06:09:07;101246.97;;;12.53;100.00
1480;BME280;732;51.698;4.886;2022-11-06T06:11:35;101248.72;;;12.53;100.00
1480;BME280;732;51.698;4.886;2022-11-06T06:14:03;101245.19;;;12.51;100.00
1480;BME280;732;51.698;4.886;2022-11-06T06:16:32;101247.16;;;12.65;100.00
1480;BME280;732;51.698;4.886;2022-11-06T06:19:00;101245.84;;;12.37;100.00
1480;BME280;732;51.698;4.886;2022-11-06T06:21:29;101251.28;;;12.51;100.00
1480;BME280;732;51.698;4.886;2022-11-06T06:23:57;101246.09;;;12.53;100.00
1480;BME280;732;51.698;4.886;2022-11-06T06:26:27;101107.31;;;11.59;100.00
1480;BME280;732;51.698;4.886;2022-11-06T06:28:56;101117.97;;;11.66;100.00
1480;BME280;732;51.698;4.886;2022-11-06T06:31:24;101112.56;;;11.60;100.00
1480;BME280;732;51.698;4.886;2022-11-06T06:33:52;101233.81;;;12.50;100.00
1480;BME280;732;51.698;4.886;2022-11-06T06:36:21;101195.38;;;12.00;100.00
1480;BME280;732;51.698;4.886;2022-11-06T06:38:49;101244.63;;;12.19;100.00
1480;BME280;732;51.698;4.886;2022-11-06T06:41:17;101226.56;;;12.34;100.00
1480;BME280;732;51.698;4.886;2022-11-06T06:43:48;101224.59;;;12.21;100.00
1480;BME280;732;51.698;4.886;2022-11-06T06:46:17;101232.00;;;12.46;100.00
1480;BME280;732;51.698;4.886;2022-11-06T06:48:45;101220.09;;;12.15;100.00
1480;BME280;732;51.698;4.886;2022-11-06T06:51:13;101198.25;;;12.13;100.00
1480;BME280;732;51.698;4.886;2022-11-06T06:53:49;101150.59;;;11.85;100.00
1480;BME280;732;51.698;4.886;2022-11-06T06:56:17;101230.78;;;12.26;100.00
1480;BME280;732;51.698;4.886;2022-11-06T06:58:47;101205.41;;;12.25;100.00
1480;BME280;732;51.698;4.886;2022-11-06T07:01:15;101206.06;;;12.12;100.00
1480;BME280;732;51.698;4.886;2022-11-06T07:03:44;101185.66;;;11.93;100.00
1480;BME280;732;51.698;4.886;2022-11-06T07:06:12;101224.50;;;12.16;100.00
1480;BME280;732;51.698;4.886;2022-11-06T07:08:41;101045.41;;;11.14;100.00
1480;BME280;732;51.698;4.886;2022-11-06T07:11:10;101197.66;;;11.82;100.00
1480;BME280;732;51.698;4.886;2022-11-06T07:13:41;101195.91;;;11.82;100.00
1480;BME280;732;51.698;4.886;2022-11-06T07:16:11;101215.59;;;12.08;100.00
1480;BME280;732;51.698;4.886;2022-11-06T07:18:40;101184.56;;;11.82;100.00
1480;BME280;732;51.698;4.886;2022-11-06T07:21:10;101223.03;;;11.86;100.00
1480;BME280;732;51.698;4.886;2022-11-06T07:23:39;101169.09;;;11.50;100.00
1480;BME280;732;51.698;4.886;2022-11-06T07:26:07;101200.16;;;11.76;100.00
1480;BME280;732;51.698;4.886;2022-11-06T07:28:35;101223.19;;;11.95;100.00
1480;BME280;732;51.698;4.886;2022-11-06T07:31:07;101194.84;;;11.73;100.00
1480;BME280;732;51.698;4.886;2022-11-06T07:33:37;101233.63;;;11.92;100.00
1480;BME280;732;51.698;4.886;2022-11-06T07:36:08;101182.81;;;11.82;100.00
1480;BME280;732;51.698;4.886;2022-11-06T07:38:39;101153.88;;;11.75;100.00
1480;BME280;732;51.698;4.886;2022-11-06T07:41:10;101160.81;;;11.73;100.00
1480;BME280;732;51.698;4.886;2022-11-06T07:43:39;101192.66;;;11.94;100.00
1480;BME280;732;51.698;4.886;2022-11-06T07:46:10;101162.81;;;11.86;100.00
1480;BME280;732;51.698;4.886;2022-11-06T07:48:40;101208.53;;;12.04;100.00
1480;BME280;732;51.698;4.886;2022-11-06T07:51:10;101212.97;;;12.07;100.00
1480;BME280;732;51.698;4.886;2022-11-06T07:53:39;101176.03;;;11.93;100.00
1480;BME280;732;51.698;4.886;2022-11-06T07:56:08;101204.38;;;12.15;100.00
1480;BME280;732;51.698;4.886;2022-11-06T07:58:36;100924.72;;;10.47;100.00
1480;BME280;732;51.698;4.886;2022-11-06T08:01:05;101047.53;;;11.35;100.00
1480;BME280;732;51.698;4.886;2022-11-06T08:03:33;101186.28;;;12.30;100.00
1480;BME280;732;51.698;4.886;2022-11-06T08:06:04;101189.09;;;12.39;100.00
1480;BME280;732;51.698;4.886;2022-11-06T08:08:32;101191.75;;;12.42;100.00
1480;BME280;732;51.698;4.886;2022-11-06T08:11:02;101129.25;;;12.14;100.00
1480;BME280;732;51.698;4.886;2022-11-06T08:13:30;101084.09;;;11.77;100.00
1480;BME280;732;51.698;4.886;2022-11-06T08:16:03;101191.72;;;12.39;100.00
1480;BME280;732;51.698;4.886;2022-11-06T08:18:32;101184.78;;;12.44;100.00
1480;BME280;732;51.698;4.886;2022-11-06T08:21:02;101109.97;;;12.09;100.00
1480;BME280;732;51.698;4.886;2022-11-06T08:23:32;101178.06;;;12.60;100.00
1480;BME280;732;51.698;4.886;2022-11-06T08:26:04;101166.88;;;12.72;100.00
1480;BME280;732;51.698;4.886;2022-11-06T08:28:33;101138.03;;;12.73;100.00
1480;BME280;732;51.698;4.886;2022-11-06T08:31:06;101150.72;;;13.03;100.00
1480;BME280;732;51.698;4.886;2022-11-06T08:33:37;101147.38;;;13.14;100.00
1480;BME280;732;51.698;4.886;2022-11-06T08:36:09;101139.44;;;13.11;100.00
1480;BME280;732;51.698;4.886;2022-11-06T08:38:37;101150.56;;;13.63;100.00
1480;BME280;732;51.698;4.886;2022-11-06T08:41:07;101146.41;;;13.84;100.00
1480;BME280;732;51.698;4.886;2022-11-06T08:43:37;101116.56;;;13.78;100.00
1480;BME280;732;51.698;4.886;2022-11-06T08:46:08;101069.34;;;13.87;100.00
1480;BME280;732;51.698;4.886;2022-11-06T08:48:37;101116.09;;;14.25;100.00
1480;BME280;732;51.698;4.886;2022-11-06T08:51:07;101105.63;;;14.27;100.00
1480;BME280;732;51.698;4.886;2022-11-06T08:53:35;101110.06;;;14.37;100.00
1480;BME280;732;51.698;4.886;2022-11-06T08:56:04;101094.38;;;14.48;100.00
1480;BME280;732;51.698;4.886;2022-11-06T08:58:33;101096.25;;;14.68;100.00
1480;BME280;732;51.698;4.886;2022-11-06T09:01:02;101107.72;;;14.81;100.00
1480;BME280;732;51.698;4.886;2022-11-06T09:03:30;101099.91;;;14.93;100.00
1480;BME280;732;51.698;4.886;2022-11-06T09:05:59;100990.97;;;14.56;100.00
1480;BME280;732;51.698;4.886;2022-11-06T09:08:29;101085.94;;;15.12;100.00
1480;BME280;732;51.698;4.886;2022-11-06T09:10:57;101091.25;;;15.27;100.00
1480;BME280;732;51.698;4.886;2022-11-06T09:13:26;101039.31;;;14.79;100.00
1480;BME280;732;51.698;4.886;2022-11-06T09:15:54;101033.94;;;14.60;100.00
1480;BME280;732;51.698;4.886;2022-11-06T09:18:23;101055.13;;;14.87;100.00
1480;BME280;732;51.698;4.886;2022-11-06T09:20:53;100969.91;;;14.50;100.00
1480;BME280;732;51.698;4.886;2022-11-06T09:23:23;101031.41;;;14.79;100.00
1480;BME280;732;51.698;4.886;2022-11-06T09:25:55;101042.00;;;14.91;100.00
1480;BME280;732;51.698;4.886;2022-11-06T09:28:23;100823.28;;;13.87;100.00
1480;BME280;732;51.698;4.886;2022-11-06T09:30:52;101074.53;;;15.11;100.00
1480;BME280;732;51.698;4.886;2022-11-06T09:33:21;101044.56;;;14.82;100.00
1480;BME280;732;51.698;4.886;2022-11-06T09:35:49;101077.16;;;15.13;100.00
1480;BME280;732;51.698;4.886;2022-11-06T09:38:18;101076.34;;;15.33;100.00
1480;BME280;732;51.698;4.886;2022-11-06T09:40:50;101014.84;;;15.16;100.00
1480;BME280;732;51.698;4.886;2022-11-06T09:43:30;100969.91;;;14.55;100.00
1480;BME280;732;51.698;4.886;2022-11-06T09:46:23;101050.81;;;15.04;100.00
1480;BME280;732;51.698;4.886;2022-11-06T09:48:57;101043.75;;;15.03;100.00
1480;BME280;732;51.698;4.886;2022-11-06T09:51:34;101072.78;;;15.15;100.00
1480;BME280;732;51.698;4.886;2022-11-06T09:54:11;101042.03;;;15.00;100.00
1480;BME280;732;51.698;4.886;2022-11-06T09:56:43;101073.69;;;15.24;100.00
1480;BME280;732;51.698;4.886;2022-11-06T09:59:17;101052.63;;;15.24;100.00
1480;BME280;732;51.698;4.886;2022-11-06T10:01:49;101033.28;;;15.24;100.00
1480;BME280;732;51.698;4.886;2022-11-06T10:04:34;101036.91;;;15.64;100.00
1480;BME280;732;51.698;4.886;2022-11-06T10:07:17;101031.63;;;15.64;100.00
1480;BME280;732;51.698;4.886;2022-11-06T10:09:46;100979.81;;;15.45;100.00
1480;BME280;732;51.698;4.886;2022-11-06T10:12:23;100964.03;;;15.64;100.00
1480;BME280;732;51.698;4.886;2022-11-06T10:15:07;101019.28;;;16.26;100.00
1480;BME280;732;51.698;4.886;2022-11-06T10:17:53;101012.25;;;16.25;100.00
1480;BME280;732;51.698;4.886;2022-11-06T10:20:29;100877.97;;;15.51;100.00
1480;BME280;732;51.698;4.886;2022-11-06T10:23:04;100956.06;;;16.02;100.00
1480;BME280;732;51.698;4.886;2022-11-06T10:25:48;101013.94;;;16.61;100.00
1480;BME280;732;51.698;4.886;2022-11-06T10:31:42;101006.09;;;16.23;100.00
1480;BME280;732;51.698;4.886;2022-11-06T10:34:16;100874.44;;;15.61;100.00
1480;BME280;732;51.698;4.886;2022-11-06T10:36:50;100764.75;;;15.21;100.00
1480;BME280;732;51.698;4.886;2022-11-06T10:39:24;100871.75;;;15.76;100.00
1480;BME280;732;51.698;4.886;2022-11-06T10:41:58;100890.19;;;15.82;100.00
1480;BME280;732;51.698;4.886;2022-11-06T10:44:35;100895.47;;;15.81;100.00
1480;BME280;732;51.698;4.886;2022-11-06T10:47:14;100979.72;;;16.27;100.00
1480;BME280;732;51.698;4.886;2022-11-06T10:49:47;100914.69;;;16.27;100.00
1480;BME280;732;51.698;4.886;2022-11-06T10:52:52;100962.16;;;16.27;100.00
1480;BME280;732;51.698;4.886;2022-11-06T10:55:45;100972.66;;;16.37;100.00
1480;BME280;732;51.698;4.886;2022-11-06T10:58:21;100945.31;;;16.61;100.00
1480;BME280;732;51.698;4.886;2022-11-06T11:00:52;100918.22;;;16.18;100.00
1480;BME280;732;51.698;4.886;2022-11-06T11:03:25;100936.66;;;16.22;100.00
1480;BME280;732;51.698;4.886;2022-11-06T11:05:55;100943.66;;;16.31;100.00
1480;BME280;732;51.698;4.886;2022-11-06T11:08:39;100924.41;;;16.05;100.00
1480;BME280;732;51.698;4.886;2022-11-06T11:11:21;100756.00;;;15.04;100.00
1480;BME280;732;51.698;4.886;2022-11-06T11:14:12;100884.09;;;15.64;100.00
1480;BME280;732;51.698;4.886;2022-11-06T11:16:44;100797.25;;;15.08;100.00
1480;BME280;732;51.698;4.886;2022-11-06T11:19:25;100913.00;;;15.89;100.00
1480;BME280;732;51.698;4.886;2022-11-06T11:21:56;100933.19;;;16.11;100.00
1480;BME280;732;51.698;4.886;2022-11-06T11:24:25;100939.38;;;15.98;100.00
1480;BME280;732;51.698;4.886;2022-11-06T11:26:58;100681.50;;;14.49;100.00
1480;BME280;732;51.698;4.886;2022-11-06T11:29:31;100938.50;;;15.96;100.00
1480;BME280;732;51.698;4.886;2022-11-06T11:32:05;100935.91;;;15.54;100.00
1480;BME280;732;51.698;4.886;2022-11-06T11:34:42;100769.16;;;14.47;100.00
1480;BME280;732;51.698;4.886;2022-11-06T11:37:24;100715.69;;;14.39;100.00
1480;BME280;732;51.698;4.886;2022-11-06T11:39:55;100925.41;;;15.42;100.00
1480;BME280;732;51.698;4.886;2022-11-06T11:42:45;100888.47;;;14.98;100.00
1480;BME280;732;51.698;4.886;2022-11-06T11:45:19;100743.66;;;14.15;100.00
1480;BME280;732;51.698;4.886;2022-11-06T11:47:49;100911.31;;;15.11;100.00
1480;BME280;732;51.698;4.886;2022-11-06T11:50:27;100876.22;;;15.14;100.00
1480;BME280;732;51.698;4.886;2022-11-06T11:53:00;100806.00;;;14.68;100.00
1480;BME280;732;51.698;4.886;2022-11-06T11:55:39;100787.56;;;14.51;100.00
1480;BME280;732;51.698;4.886;2022-11-06T11:58:28;100890.22;;;15.37;100.00
1480;BME280;732;51.698;4.886;2022-11-06T12:00:58;100846.34;;;15.16;100.00
1480;BME280;732;51.698;4.886;2022-11-06T12:03:33;100867.41;;;14.92;100.00
1480;BME280;732;51.698;4.886;2022-11-06T12:06:09;100832.28;;;14.51;100.00
1480;BME280;732;51.698;4.886;2022-11-06T12:08:44;100841.94;;;14.58;100.00
1480;BME280;732;51.698;4.886;2022-11-06T12:11:19;100869.16;;;14.80;100.00
1480;BME280;732;51.698;4.886;2022-11-06T12:14:28;100842.81;;;14.56;100.00
1480;BME280;732;51.698;4.886;2022-11-06T12:19:50;100858.63;;;14.75;100.00
1480;BME280;732;51.698;4.886;2022-11-06T12:22:27;100850.75;;;14.99;100.00
1480;BME280;732;51.698;4.886;2022-11-06T12:25:04;100850.75;;;14.89;100.00
1480;BME280;732;51.698;4.886;2022-11-06T12:27:41;100670.91;;;13.90;100.00
1480;BME280;732;51.698;4.886;2022-11-06T12:30:13;100835.84;;;15.04;100.00
1480;BME280;732;51.698;4.886;2022-11-06T12:33:00;100850.69;;;14.50;100.00
1480;BME280;732;51.698;4.886;2022-11-06T12:35:33;100834.00;;;14.40;100.00
1480;BME280;732;51.698;4.886;2022-11-06T12:38:14;100860.34;;;14.58;100.00
1480;BME280;732;51.698;4.886;2022-11-06T12:40:49;100601.44;;;12.93;100.00
1480;BME280;732;51.698;4.886;2022-11-06T12:43:28;100582.31;;;13.17;100.00
1480;BME280;732;51.698;4.886;2022-11-06T12:49:50;100825.94;;;13.92;100.00
1480;BME280;732;51.698;4.886;2022-11-06T12:52:36;100813.50;;;13.62;100.00
1480;BME280;732;51.698;4.886;2022-11-06T12:55:18;100686.94;;;12.66;100.00
1480;BME280;732;51.698;4.886;2022-11-06T12:58:04;100808.06;;;13.27;100.00
1480;BME280;732;51.698;4.886;2022-11-06T13:00:49;100835.28;;;13.40;100.00
1480;BME280;732;51.698;4.886;2022-11-06T13:03:38;100837.88;;;13.35;100.00
1480;BME280;732;51.698;4.886;2022-11-06T13:06:17;100814.06;;;13.08;100.00
1480;BME280;732;51.698;4.886;2022-11-06T13:08:56;100846.56;;;13.27;100.00
1480;BME280;732;51.698;4.886;2022-11-06T13:11:38;100811.47;;;13.14;100.00
1480;BME280;732;51.698;4.886;2022-11-06T13:14:17;100860.56;;;13.29;100.00
1480;BME280;732;51.698;4.886;2022-11-06T13:16:56;100861.44;;;13.28;100.00
1480;BME280;732;51.698;4.886;2022-11-06T13:19:33;100858.84;;;13.29;100.00
1480;BME280;732;51.698;4.886;2022-11-06T13:22:20;100836.69;;;12.99;100.00
1480;BME280;732;51.698;4.886;2022-11-06T13:24:59;100822.66;;;12.94;100.00
1480;BME280;732;51.698;4.886;2022-11-06T13:27:38;100850.84;;;13.17;100.00
1480;BME280;732;51.698;4.886;2022-11-06T13:30:14;100854.38;;;13.18;100.00
1480;BME280;732;51.698;4.886;2022-11-06T13:32:56;100809.34;;;12.73;100.00
1480;BME280;732;51.698;4.886;2022-11-06T13:35:26;100858.47;;;12.90;100.00
1480;BME280;732;51.698;4.886;2022-11-06T13:37:56;100859.13;;;12.68;100.00
1480;BME280;732;51.698;4.886;2022-11-06T13:40:29;100866.00;;;12.59;100.00
1480;BME280;732;51.698;4.886;2022-11-06T13:43:08;100852.97;;;12.66;100.00
1480;BME280;732;51.698;4.886;2022-11-06T13:45:44;100832.75;;;12.53;100.00
1480;BME280;732;51.698;4.886;2022-11-06T13:48:26;100849.50;;;12.64;100.00
1480;BME280;732;51.698;4.886;2022-11-06T13:51:12;100857.41;;;12.70;100.00
1480;BME280;732;51.698;4.886;2022-11-06T13:53:45;100798.34;;;12.21;100.00
1480;BME280;732;51.698;4.886;2022-11-06T13:56:53;100857.25;;;12.55;100.00